Portada
METAR-TAF:

METAR-TAF

Aeropuertos :

Aeropuerto de Sevilla

Sevilla, España

latitud: 37-25N, longitud: 005-54W, altitud: 34 m

Observación

El informe se hizo hace 29 minutos, a las 15:00 UTC
Viento 3 kt del norte-noroeste, variando entre oeste y este-noreste
Temperatura 34°C
Humedad 30%
Presión 1016 hPa
Visibilidad 10 km o más
sin nubes por debajo de 1500 m y sin presencia de cumulonimbus.

METAR: LEZL 211500Z 34003KT 260V060 CAVOK 34/14 Q1016 NOSIG

Hora: 17:29 (15:29 UTC)

Pronóstico

El informe se hizo hace 1 hora y 29 minutos, a las 14:00 UTC
Pronóstico válido del 21 a las 15 UTC al 22 a las 15 UTC
Viento 3 kt con dirección variable
Visibilidad 10 km o más
sin nubes por debajo de 1500 m y sin presencia de cumulonimbus.

TAF: LEZL 211400Z 2115/2215 VRB03KT CAVOK TX37/2215Z TN21/2206Z

Observaciones y pronósticos meteorológicos de más de 4000 aeropuertos (mensajes METAR y TAF).

Los puntos amarillos y rojos representan las estaciones disponibles.

Ponga el ratón en el punto deseado para ver el nombre de la estación.

Haga clic para ver las observaciones y los pronósticos meteorológicos.

Para cambiar el mapa : haga clic en los botones verdes con una cruz de color negro para hacer un zoom, en el botón verde con un guión para alejar o en las flechas verdes para mapas adyacentes.


METAR-TAF: